Time;durP1;ratioP1;P1;durP2;ratioP2;P2;SDS_P1;SDS_P2;PMS_P1;PMS_P2;Temp;Humidity;BMP_temperature;BMP_pressure;BME280_temperature;BME280_humidity;BME280_pressure;Samples;Min_cycle;Max_cycle;Signal;HPM_P1;HPM_P2
2023/03/03 00:00:40;;;;;;;55.83;24.17;;;;;;;0.78;87.94;101948.44;5114409;28;20211;-65
2023/03/03 00:03:09;;;;;;;47.80;25.17;;;;;;;0.74;87.58;101949.38;5114464;28;20192;-65
2023/03/03 00:05:36;;;;;;;52.23;24.13;;;;;;;0.77;86.69;101944.06;5113848;28;20202;-65
2023/03/03 00:08:03;;;;;;;57.93;25.87;;;;;;;0.81;87.07;101950.16;5113763;28;20272;-65
2023/03/03 00:10:30;;;;;;;55.57;25.60;;;;;;;0.82;87.22;101947.50;5114186;28;20226;-65
2023/03/03 00:12:57;;;;;;;54.80;25.83;;;;;;;0.84;87.02;101951.00;5113965;28;20193;-65
2023/03/03 00:15:24;;;;;;;55.67;26.07;;;;;;;0.86;86.72;101937.78;5113678;28;20722;-65
2023/03/03 00:17:52;;;;;;;52.83;24.70;;;;;;;0.86;87.32;101945.69;5113745;28;20208;-65
2023/03/03 00:20:34;;;;;;;59.63;26.00;;;;;;;0.88;86.44;101948.31;5095356;28;20194;-66
2023/03/03 00:23:10;;;;;;;48.57;23.37;;;;;;;0.79;86.67;101942.28;5113652;28;20189;-65
2023/03/03 00:25:37;;;;;;;61.90;25.63;;;;;;;0.74;87.69;101946.75;5113654;28;20197;-65
2023/03/03 00:28:17;;;;;;;63.03;25.10;;;;;;;0.79;86.58;101951.94;5113902;28;20270;-65
2023/03/03 00:30:44;;;;;;;49.37;24.43;;;;;;;0.78;87.49;101952.84;5113454;28;20626;-66
2023/03/03 00:33:32;;;;;;;55.70;22.83;;;;;;;0.83;86.63;101951.88;5114056;28;20665;-66
2023/03/03 00:36:20;;;;;;;48.00;22.83;;;;;;;0.90;86.12;101957.09;5113489;28;20277;-66
2023/03/03 00:38:47;;;;;;;51.27;22.80;;;;;;;0.87;86.88;101959.78;5095625;28;20274;-65
2023/03/03 00:41:24;;;;;;;43.87;22.20;;;;;;;0.82;86.04;101958.06;5114747;28;20684;-65
2023/03/03 00:43:51;;;;;;;43.30;21.77;;;;;;;0.88;86.14;101966.78;5114186;28;20205;-64
2023/03/03 00:46:20;;;;;;;45.60;22.83;;;;;;;0.82;86.43;101967.75;5113564;28;20222;-63
2023/03/03 00:48:48;;;;;;;48.87;22.60;;;;;;;0.94;86.86;101969.38;5113356;28;20185;-63
2023/03/03 00:51:34;;;;;;;48.80;23.80;;;;;;;0.84;86.79;101969.47;5113986;28;20211;-63
2023/03/03 00:54:00;;;;;;;51.60;24.77;;;;;;;0.92;86.22;101968.50;5114265;28;20169;-63
2023/03/03 00:56:27;;;;;;;52.60;24.53;;;;;;;0.84;86.44;101973.88;5113483;28;20178;-63
2023/03/03 00:58:53;;;;;;;57.50;24.53;;;;;;;0.98;86.19;101973.69;5117618;28;20206;-63
2023/03/03 01:01:21;;;;;;;54.73;24.83;;;;;;;0.89;87.04;101971.16;5098963;28;20214;-63
2023/03/03 01:03:50;;;;;;;60.50;25.07;;;;;;;0.86;86.26;101972.06;5098961;28;20194;-63
2023/03/03 01:06:17;;;;;;;57.13;23.37;;;;;;;0.81;86.20;101974.78;5098903;28;20665;-63
2023/03/03 01:08:43;;;;;;;55.60;24.60;;;;;;;0.87;86.10;101970.31;5099128;28;20212;-63
2023/03/03 01:11:18;;;;;;;53.90;25.07;;;;;;;0.89;86.41;101972.06;5116964;28;20216;-64
2023/03/03 01:13:48;;;;;;;50.10;23.73;;;;;;;0.85;85.75;101979.13;5117018;28;20183;-63
2023/03/03 01:16:14;;;;;;;49.90;24.47;;;;;;;0.77;85.95;101967.78;5116958;28;20657;-63
2023/03/03 01:18:41;;;;;;;48.20;23.10;;;;;;;0.75;85.89;101971.34;5116907;28;20190;-63
2023/03/03 01:21:08;;;;;;;49.47;23.83;;;;;;;0.75;87.00;101979.25;5116992;28;20594;-64
2023/03/03 01:23:35;;;;;;;44.07;22.33;;;;;;;0.83;86.42;101978.25;5098845;28;20605;-63
2023/03/03 01:26:03;;;;;;;55.20;23.47;;;;;;;0.81;85.93;101976.53;5098615;28;20607;-63
2023/03/03 01:28:29;;;;;;;45.57;21.57;;;;;;;0.78;87.04;101974.78;5116992;28;20550;-63
2023/03/03 01:31:01;;;;;;;50.97;22.50;;;;;;;0.68;86.64;101980.19;5116521;28;20317;-63
2023/03/03 01:33:27;;;;;;;41.63;22.33;;;;;;;0.56;86.13;101975.94;5116922;28;20211;-63
2023/03/03 01:35:54;;;;;;;53.57;22.23;;;;;;;0.49;87.54;101968.97;5098298;28;20189;-63
2023/03/03 01:38:20;;;;;;;54.80;22.77;;;;;;;0.54;87.19;101975.06;5098190;28;20565;-64
2023/03/03 01:40:55;;;;;;;49.47;23.20;;;;;;;0.56;87.47;101975.94;5098162;28;20214;-64
2023/03/03 01:43:22;;;;;;;51.53;23.53;;;;;;;0.61;86.52;101979.38;5098245;28;20181;-64
2023/03/03 01:45:49;;;;;;;48.27;23.53;;;;;;;0.54;87.40;101973.28;5116897;28;20281;-64
2023/03/03 01:48:30;;;;;;;48.53;22.47;;;;;;;0.69;86.45;101971.38;5116876;28;20183;-64
2023/03/03 01:51:01;;;;;;;51.37;22.03;;;;;;;0.74;86.62;101973.09;5116693;28;20327;-65
2023/03/03 01:53:53;;;;;;;45.13;21.33;;;;;;;0.77;86.85;101983.59;5116838;28;20252;-65
2023/03/03 01:56:20;;;;;;;50.40;22.33;;;;;;;0.75;86.09;101966.06;5097928;28;20627;-65
2023/03/03 01:59:17;;;;;;;44.40;21.57;;;;;;;0.81;86.83;101974.78;5098271;28;20710;-65
2023/03/03 02:01:46;;;;;;;43.40;20.23;;;;;;;0.89;87.01;101973.78;5114564;28;20243;-65
2023/03/03 02:04:13;;;;;;;44.30;20.70;;;;;;;0.87;85.56;101960.66;5116268;28;20609;-65
2023/03/03 02:06:44;;;;;;;47.40;20.50;;;;;;;0.76;86.81;101954.63;5116245;28;20286;-64
2023/03/03 02:09:23;;;;;;;43.20;20.40;;;;;;;0.79;86.81;101957.22;5097579;28;20181;-64
2023/03/03 02:11:54;;;;;;;50.97;21.60;;;;;;;0.82;87.04;101952.78;5115832;28;20297;-64
2023/03/03 02:14:20;;;;;;;44.27;21.27;;;;;;;0.79;86.70;101958.09;5116135;28;20533;-64
2023/03/03 02:16:47;;;;;;;55.90;23.83;;;;;;;0.66;86.09;101955.63;5115767;28;20181;-64
2023/03/03 02:19:38;;;;;;;41.57;21.07;;;;;;;0.75;87.42;101955.50;5115756;28;20360;-64
2023/03/03 02:22:05;;;;;;;54.53;22.17;;;;;;;0.65;86.94;101954.75;5097398;28;20240;-64
2023/03/03 02:24:49;;;;;;;51.60;22.63;;;;;;;0.61;87.25;101951.25;5115534;28;20198;-64
2023/03/03 02:27:15;;;;;;;45.63;21.87;;;;;;;0.60;87.66;101957.44;5097329;28;20280;-64
2023/03/03 02:29:42;;;;;;;47.97;21.67;;;;;;;0.68;87.73;101965.25;5097483;28;20205;-64
2023/03/03 02:32:09;;;;;;;56.70;22.17;;;;;;;0.69;86.12;101961.72;5097165;28;20264;-64
2023/03/03 02:34:48;;;;;;;57.77;23.40;;;;;;;0.63;86.57;101961.78;5115865;28;20279;-64
2023/03/03 02:37:14;;;;;;;48.30;21.63;;;;;;;0.60;87.15;101969.75;5097099;28;20286;-64
2023/03/03 02:39:42;;;;;;;42.30;20.50;;;;;;;0.59;87.21;101966.22;5115920;28;20670;-64
2023/03/03 02:42:20;;;;;;;41.43;20.70;;;;;;;0.56;87.41;101962.75;5115512;28;20200;-64
2023/03/03 02:44:51;;;;;;;44.90;21.00;;;;;;;0.63;86.93;101962.66;5115240;28;20162;-64
2023/03/03 02:47:17;;;;;;;46.43;21.20;;;;;;;0.63;87.27;101957.38;5115476;28;20255;-64
2023/03/03 02:49:44;;;;;;;44.07;20.00;;;;;;;0.59;86.39;101953.03;5096813;28;20648;-64
2023/03/03 02:52:13;;;;;;;45.63;20.90;;;;;;;0.61;86.26;101960.94;5096778;28;20209;-64
2023/03/03 02:54:43;;;;;;;42.30;20.87;;;;;;;0.60;86.24;101960.06;5097573;28;20220;-64
2023/03/03 02:57:09;;;;;;;45.63;19.90;;;;;;;0.61;86.51;101968.84;5097288;28;20209;-64
2023/03/03 02:59:36;;;;;;;40.33;19.30;;;;;;;0.60;87.23;101961.84;5114927;28;20694;-64
2023/03/03 03:02:09;;;;;;;41.07;19.97;;;;;;;0.56;86.38;101960.97;5096781;28;20219;-64
2023/03/03 03:04:36;;;;;;;48.77;20.73;;;;;;;0.61;87.32;101967.06;5096570;28;20186;-64
2023/03/03 03:07:03;;;;;;;41.07;19.60;;;;;;;0.62;86.35;101967.94;5115038;28;20288;-64
2023/03/03 03:09:31;;;;;;;40.47;19.23;;;;;;;0.58;86.64;101968.88;5096506;28;20219;-64
2023/03/03 03:12:01;;;;;;;40.23;19.07;;;;;;;0.60;86.79;101970.59;5096341;28;20222;-64
2023/03/03 03:14:29;;;;;;;39.17;19.40;;;;;;;0.55;86.18;101971.53;5096395;28;20269;-64
2023/03/03 03:16:56;;;;;;;42.63;20.37;;;;;;;0.57;86.10;101969.75;5115181;28;20243;-64
2023/03/03 03:19:22;;;;;;;37.63;19.00;;;;;;;0.64;86.95;101972.31;5114308;28;20214;-64
2023/03/03 03:21:49;;;;;;;42.30;20.83;;;;;;;0.60;87.46;101977.66;5096267;28;20280;-64
2023/03/03 03:24:17;;;;;;;42.87;21.50;;;;;;;0.57;86.97;101972.38;5096140;28;20234;-64
2023/03/03 03:26:48;;;;;;;38.83;17.93;;;;;;;0.57;86.15;101978.53;5096783;28;20212;-64
2023/03/03 03:29:14;;;;;;;40.37;18.80;;;;;;;0.49;85.86;101976.88;5114854;28;20191;-64
2023/03/03 03:31:42;;;;;;;40.87;18.93;;;;;;;0.57;86.64;101980.28;5114143;28;20300;-65
2023/03/03 03:34:09;;;;;;;34.87;17.30;;;;;;;0.64;86.97;101980.22;5114302;28;20218;-65
2023/03/03 03:36:36;;;;;;;36.80;18.50;;;;;;;0.61;85.98;101979.38;5096021;28;20214;-64
2023/03/03 03:39:05;;;;;;;39.27;18.63;;;;;;;0.57;86.25;101985.56;5095898;28;20665;-64
2023/03/03 03:41:33;;;;;;;40.30;19.43;;;;;;;0.63;86.64;101985.53;5096605;28;20210;-64
2023/03/03 03:44:00;;;;;;;45.07;19.70;;;;;;;0.38;86.00;101995.41;5095949;28;20613;-64
2023/03/03 03:46:26;;;;;;;33.40;17.83;;;;;;;0.47;85.98;102005.88;5095863;28;20191;-64
2023/03/03 03:48:53;;;;;;;39.57;19.00;;;;;;;0.42;86.53;102005.03;5096604;28;20199;-64
2023/03/03 03:51:20;;;;;;;40.77;19.93;;;;;;;0.47;86.23;102002.38;5113818;28;20223;-65
2023/03/03 03:53:46;;;;;;;42.57;20.53;;;;;;;0.41;85.64;102000.66;5095762;28;20185;-65
2023/03/03 03:56:13;;;;;;;40.17;19.33;;;;;;;0.47;85.77;102002.38;5095802;28;20188;-65
2023/03/03 03:58:41;;;;;;;37.47;19.73;;;;;;;0.41;85.77;102003.31;5095690;28;20187;-65
2023/03/03 04:01:10;;;;;;;40.63;19.33;;;;;;;0.37;86.65;102009.47;5096275;28;20230;-65
2023/03/03 04:03:42;;;;;;;38.60;18.10;;;;;;;0.36;86.92;102002.44;5096678;28;20570;-65
2023/03/03 04:06:11;;;;;;;39.10;19.70;;;;;;;0.24;86.43;102007.81;5095534;28;20187;-64
2023/03/03 04:08:38;;;;;;;40.00;19.30;;;;;;;0.25;86.61;101999.91;5095568;28;20201;-64
2023/03/03 04:11:05;;;;;;;44.00;20.40;;;;;;;0.15;87.17;102004.41;5095374;28;20216;-64
2023/03/03 04:13:33;;;;;;;38.30;20.07;;;;;;;0.13;87.13;102006.16;5095544;28;20197;-64
2023/03/03 04:16:02;;;;;;;42.77;20.07;;;;;;;0.11;87.34;102004.44;5095332;28;20197;-64
2023/03/03 04:18:28;;;;;;;48.60;18.23;;;;;;;0.17;87.87;101997.34;5095652;28;20192;-64
2023/03/03 04:20:55;;;;;;;46.70;20.20;;;;;;;0.25;86.95;102002.56;5096113;28;20205;-65
2023/03/03 04:23:23;;;;;;;45.27;19.50;;;;;;;0.27;88.16;101999.91;5095361;28;20242;-65
2023/03/03 04:25:49;;;;;;;42.10;19.57;;;;;;;0.34;87.90;102004.25;5095486;28;20192;-65
2023/03/03 04:28:17;;;;;;;49.77;21.10;;;;;;;0.42;87.52;102007.69;5096476;28;20264;-64
2023/03/03 04:30:44;;;;;;;43.10;19.80;;;;;;;0.37;86.55;101998.94;5095163;28;20717;-64
2023/03/03 04:33:13;;;;;;;49.50;21.23;;;;;;;0.37;87.16;101997.19;5098220;28;20185;-64
2023/03/03 04:35:40;;;;;;;57.67;22.43;;;;;;;0.38;86.36;102001.56;5099423;28;20669;-64
2023/03/03 04:38:06;;;;;;;48.87;21.90;;;;;;;0.24;87.57;102003.47;5099526;28;20197;-64
2023/03/03 04:40:34;;;;;;;51.30;20.33;;;;;;;0.22;87.99;102002.59;5117942;28;20184;-65
2023/03/03 04:43:02;;;;;;;57.43;20.63;;;;;;;0.17;88.00;102010.53;5099373;28;20185;-64
2023/03/03 04:45:29;;;;;;;57.23;22.27;;;;;;;0.19;88.31;102005.22;5099359;28;20274;-64
2023/03/03 04:47:55;;;;;;;58.57;22.63;;;;;;;0.21;88.21;102003.47;5099190;28;20239;-64
2023/03/03 04:50:22;;;;;;;52.00;21.43;;;;;;;0.27;87.86;102000.78;5099309;28;20219;-65
2023/03/03 04:52:49;;;;;;;61.47;22.83;;;;;;;0.27;87.64;102003.41;5099374;28;20190;-65
2023/03/03 04:55:16;;;;;;;56.63;20.67;;;;;;;0.26;87.14;101995.53;5099145;28;20266;-64
2023/03/03 04:57:45;;;;;;;51.10;21.13;;;;;;;0.31;86.98;101997.25;5099021;28;20194;-64
2023/03/03 05:00:13;;;;;;;52.90;20.40;;;;;;;0.27;87.21;101997.28;5117249;28;20217;-64
2023/03/03 05:02:40;;;;;;;48.10;20.97;;;;;;;0.33;87.47;102002.47;5098925;28;20637;-65
2023/03/03 05:05:09;;;;;;;56.00;21.20;;;;;;;0.30;86.94;102003.38;5099745;28;20668;-64
2023/03/03 05:07:35;;;;;;;64.73;23.00;;;;;;;0.33;87.78;101997.22;5117459;28;20192;-64
2023/03/03 05:10:02;;;;;;;54.40;21.23;;;;;;;0.21;87.16;102008.72;5116985;28;20186;-64
2023/03/03 05:12:28;;;;;;;78.00;22.67;;;;;;;0.24;87.33;102003.47;5116938;28;20207;-64
2023/03/03 05:14:55;;;;;;;54.27;23.33;;;;;;;0.28;87.21;102002.53;5116971;28;20264;-64
2023/03/03 05:17:21;;;;;;;67.50;22.87;;;;;;;0.21;88.13;102008.72;5116913;28;20196;-64
2023/03/03 05:19:48;;;;;;;56.53;21.80;;;;;;;0.25;87.94;102005.19;5116864;28;20192;-64
2023/03/03 05:22:14;;;;;;;70.30;22.57;;;;;;;0.22;86.79;102007.84;5117119;28;20205;-64
2023/03/03 05:24:41;;;;;;;55.97;20.33;;;;;;;0.24;86.63;102007.81;5116336;28;20199;-64
2023/03/03 05:27:08;;;;;;;48.47;20.37;;;;;;;0.33;86.30;101999.84;5115432;28;20185;-64
2023/03/03 05:29:34;;;;;;;58.60;22.83;;;;;;;0.29;86.68;101996.38;5115403;28;20181;-64
2023/03/03 05:32:01;;;;;;;66.47;22.97;;;;;;;0.29;86.42;102001.66;5097237;28;20317;-65
2023/03/03 05:34:27;;;;;;;54.20;22.70;;;;;;;0.35;86.66;102000.72;5115383;28;20594;-65
2023/03/03 05:36:54;;;;;;;58.40;22.33;;;;;;;0.37;86.58;102010.34;5115316;28;20219;-65
2023/03/03 05:39:20;;;;;;;57.07;22.60;;;;;;;0.47;87.00;102013.78;5115324;28;20279;-65
2023/03/03 05:41:46;;;;;;;65.97;23.27;;;;;;;0.33;87.23;102010.38;5115399;28;20197;-65
2023/03/03 05:44:13;;;;;;;65.00;23.30;;;;;;;0.30;87.36;102005.16;5115050;28;20278;-65
2023/03/03 05:46:41;;;;;;;58.07;23.13;;;;;;;0.23;87.45;102006.09;5115184;28;20272;-65
2023/03/03 05:49:07;;;;;;;61.53;22.53;;;;;;;0.20;86.98;102007.84;5115190;28;20182;-64
2023/03/03 05:51:34;;;;;;;56.03;22.67;;;;;;;0.30;87.58;102008.66;5115227;28;20241;-65
2023/03/03 05:54:00;;;;;;;53.50;21.80;;;;;;;0.30;86.74;102015.69;5115082;28;20265;-65
2023/03/03 05:56:27;;;;;;;55.50;21.43;;;;;;;0.23;86.24;102004.31;5114990;28;20181;-64
2023/03/03 05:58:53;;;;;;;63.00;21.30;;;;;;;0.27;87.76;102013.97;5114962;28;20265;-64
2023/03/03 06:01:21;;;;;;;61.07;23.03;;;;;;;0.30;86.61;102013.06;5115093;28;20222;-65
2023/03/03 06:03:47;;;;;;;54.37;21.17;;;;;;;0.35;86.01;102012.13;5115203;28;20181;-65
2023/03/03 06:06:15;;;;;;;63.33;22.70;;;;;;;0.44;85.50;102019.09;5115694;28;20548;-65
2023/03/03 06:08:42;;;;;;;58.27;21.50;;;;;;;0.47;84.96;102026.09;5115166;28;20302;-65
2023/03/03 06:11:08;;;;;;;66.57;21.50;;;;;;;0.40;86.33;102026.13;5114673;28;20217;-65
2023/03/03 06:13:34;;;;;;;54.13;21.40;;;;;;;0.31;85.28;102023.59;5096496;28;20542;-64
2023/03/03 06:16:01;;;;;;;63.23;23.30;;;;;;;0.35;84.74;102019.16;5115533;28;20553;-64
2023/03/03 06:18:27;;;;;;;71.60;23.00;;;;;;;0.42;85.64;102031.38;5114683;28;20231;-64
2023/03/03 06:20:54;;;;;;;69.17;23.83;;;;;;;0.44;84.88;102026.13;5115001;28;20209;-65
2023/03/03 06:23:21;;;;;;;76.63;22.33;;;;;;;0.35;85.16;102033.19;5114568;28;20688;-65
2023/03/03 06:25:47;;;;;;;70.80;25.00;;;;;;;0.43;85.79;102033.13;5121374;28;20199;-64
2023/03/03 06:28:14;;;;;;;59.60;23.03;;;;;;;0.46;86.20;102038.41;5115835;28;20196;-64
2023/03/03 06:30:40;;;;;;;67.73;23.13;;;;;;;0.52;84.57;102042.72;5115370;28;20689;-65
2023/03/03 06:33:06;;;;;;;78.33;23.50;;;;;;;0.52;85.11;102045.34;5115689;28;20561;-65
2023/03/03 06:35:33;;;;;;;64.83;21.53;;;;;;;0.56;84.03;102052.38;5115726;28;20215;-65
2023/03/03 06:37:59;;;;;;;58.60;21.80;;;;;;;0.59;85.31;102052.31;5115314;28;20550;-65
2023/03/03 06:40:25;;;;;;;59.00;22.37;;;;;;;0.63;85.02;102054.91;5115269;28;20208;-65
2023/03/03 06:42:52;;;;;;;64.87;22.37;;;;;;;0.66;84.95;102053.16;5115205;28;20281;-65
2023/03/03 06:45:18;;;;;;;67.27;21.73;;;;;;;0.64;84.19;102045.25;5115400;28;20583;-65
2023/03/03 06:47:44;;;;;;;66.10;21.63;;;;;;;0.69;84.46;102047.84;5115135;28;20529;-65
2023/03/03 06:50:11;;;;;;;57.67;22.87;;;;;;;0.68;84.54;102056.66;5115098;28;20189;-65
2023/03/03 06:52:37;;;;;;;55.40;21.83;;;;;;;0.70;84.82;102062.78;5115210;28;20704;-65
2023/03/03 06:55:20;;;;;;;50.27;21.47;;;;;;;0.74;84.03;102068.03;5114963;28;20184;-65
2023/03/03 06:57:47;;;;;;;61.13;23.23;;;;;;;0.75;84.66;102067.13;5114986;28;20226;-65
2023/03/03 07:00:17;;;;;;;62.07;20.87;;;;;;;0.73;83.41;102073.28;5114908;28;20266;-65
2023/03/03 07:02:43;;;;;;;58.37;21.13;;;;;;;0.73;82.74;102071.53;5115095;28;20182;-65
2023/03/03 07:05:14;;;;;;;57.40;22.37;;;;;;;0.68;83.95;102072.47;5114781;28;20215;-65
2023/03/03 07:07:41;;;;;;;58.20;19.53;;;;;;;0.72;84.24;102074.16;5115102;28;20191;-65
2023/03/03 07:10:25;;;;;;;50.90;20.30;;;;;;;0.69;84.19;102077.69;5114718;28;20187;-65
2023/03/03 07:12:53;;;;;;;52.40;20.13;;;;;;;0.65;83.42;102078.66;5114634;28;20268;-65
2023/03/03 07:15:28;;;;;;;52.50;19.60;;;;;;;0.69;83.69;102084.75;5114592;28;20191;-65
2023/03/03 07:17:58;;;;;;;62.10;22.17;;;;;;;0.73;83.48;102082.06;5114860;28;20634;-65
2023/03/03 07:20:35;;;;;;;59.87;21.47;;;;;;;0.74;84.01;102080.31;5114983;28;20197;-65
2023/03/03 07:23:24;;;;;;;62.40;20.77;;;;;;;0.76;83.08;102089.06;5115072;28;20268;-65
2023/03/03 07:25:51;;;;;;;56.23;21.87;;;;;;;0.78;83.28;102090.81;5114652;28;20757;-65
2023/03/03 07:28:22;;;;;;;54.33;21.03;;;;;;;0.89;82.89;102093.38;5114365;28;20194;-65
2023/03/03 07:30:50;;;;;;;56.63;21.00;;;;;;;0.87;83.64;102100.41;5114443;28;20545;-65
2023/03/03 07:33:25;;;;;;;48.07;20.60;;;;;;;0.90;82.71;102100.38;5114554;28;20191;-65
2023/03/03 07:35:57;;;;;;;65.63;21.80;;;;;;;0.91;83.72;102101.25;5114420;28;20536;-65
2023/03/03 07:38:52;;;;;;;63.50;21.57;;;;;;;0.92;82.71;102097.72;5114213;28;20624;-65
2023/03/03 07:41:22;;;;;;;62.10;21.30;;;;;;;0.90;82.19;102096.88;5114337;28;20696;-65
2023/03/03 07:43:53;;;;;;;61.57;21.47;;;;;;;0.96;82.08;102105.59;5114386;28;20198;-65
2023/03/03 07:46:40;;;;;;;58.17;19.80;;;;;;;0.99;82.34;102112.59;5114241;28;20184;-65
2023/03/03 07:49:29;;;;;;;61.83;20.70;;;;;;;0.98;82.37;102116.13;5114313;28;20180;-65
2023/03/03 07:51:57;;;;;;;63.63;21.93;;;;;;;1.02;83.02;102120.47;5113846;28;20240;-65
2023/03/03 07:54:44;;;;;;;55.10;19.87;;;;;;;0.98;82.73;102124.03;5114087;28;20188;-65
2023/03/03 07:57:19;;;;;;;41.73;18.53;;;;;;;1.04;82.97;102124.84;5114783;28;20259;-65
2023/03/03 07:59:58;;;;;;;66.97;21.00;;;;;;;1.03;81.67;102132.75;5114188;28;20212;-65
2023/03/03 08:02:44;;;;;;;60.90;19.87;;;;;;;0.97;82.91;102128.44;5113800;28;20279;-65
2023/03/03 08:05:33;;;;;;;54.77;20.30;;;;;;;0.99;81.78;102131.06;5114146;28;20179;-64
2023/03/03 08:08:08;;;;;;;54.83;19.20;;;;;;;1.02;82.79;102141.59;5114295;28;20224;-64
2023/03/03 08:10:52;;;;;;;62.80;20.47;;;;;;;1.11;82.89;102144.13;5113827;28;20183;-64
2023/03/03 08:13:26;;;;;;;45.77;19.60;;;;;;;1.05;81.93;102142.44;5114017;28;20259;-64
2023/03/03 08:16:12;;;;;;;59.30;20.17;;;;;;;0.98;82.29;102145.13;5113772;28;20179;-64
2023/03/03 08:18:45;;;;;;;56.57;19.27;;;;;;;1.05;82.45;102142.44;5113360;28;20196;-64
2023/03/03 08:21:14;;;;;;;55.53;20.73;;;;;;;1.05;83.05;102141.53;5113762;28;20209;-65
2023/03/03 08:23:40;;;;;;;56.30;19.47;;;;;;;1.10;82.42;102149.41;5113535;28;20616;-64
2023/03/03 08:26:07;;;;;;;60.17;19.53;;;;;;;1.16;81.75;102147.59;5113848;28;20685;-64
2023/03/03 08:28:34;;;;;;;62.47;20.40;;;;;;;1.21;82.95;102148.44;5113849;28;20185;-64
2023/03/03 08:31:00;;;;;;;47.60;18.83;;;;;;;1.23;82.58;102148.44;5113458;28;20280;-64
2023/03/03 08:33:45;;;;;;;59.97;18.73;;;;;;;1.29;81.38;102153.63;5113829;28;20222;-64
2023/03/03 08:36:12;;;;;;;61.83;21.33;;;;;;;1.26;82.09;102151.03;5113531;28;20189;-64
2023/03/03 08:38:39;;;;;;;64.60;20.93;;;;;;;1.19;81.71;102151.97;5113711;28;20599;-64
2023/03/03 08:41:06;;;;;;;58.83;19.50;;;;;;;1.26;82.26;102159.81;5113334;28;20295;-65
2023/03/03 08:43:32;;;;;;;62.20;20.20;;;;;;;1.05;82.21;102154.72;5113949;28;20188;-64
2023/03/03 08:46:01;;;;;;;53.57;20.40;;;;;;;1.06;82.53;102164.41;5113732;28;20235;-64
2023/03/03 08:48:28;;;;;;;50.70;20.23;;;;;;;1.08;81.81;102159.09;5113631;28;20272;-64
2023/03/03 08:50:54;;;;;;;52.03;20.40;;;;;;;1.10;83.07;102166.13;5113223;28;20208;-65
2023/03/03 08:53:22;;;;;;;59.63;20.70;;;;;;;1.04;82.73;102166.19;5113609;28;20276;-65
2023/03/03 08:55:49;;;;;;;53.87;19.53;;;;;;;1.15;83.33;102169.63;5113566;28;20212;-65
2023/03/03 08:58:17;;;;;;;50.00;18.13;;;;;;;1.20;82.90;102170.44;5113295;28;20190;-65
2023/03/03 09:00:44;;;;;;;48.50;17.63;;;;;;;1.31;81.67;102165.03;5113753;28;20201;-65
2023/03/03 09:03:15;;;;;;;42.90;17.37;;;;;;;1.37;81.29;102172.03;5113503;28;20166;-65
2023/03/03 09:05:41;;;;;;;55.53;17.60;;;;;;;1.39;81.17;102175.50;5113229;28;20279;-65
2023/03/03 09:08:08;;;;;;;42.77;16.27;;;;;;;1.37;82.20;102169.41;5113270;28;20224;-65
2023/03/03 09:10:35;;;;;;;42.17;16.73;;;;;;;1.42;81.88;102179.00;5113135;28;20193;-64
2023/03/03 09:13:17;;;;;;;50.67;17.87;;;;;;;1.46;81.33;102187.75;5113503;28;20299;-64
2023/03/03 09:15:44;;;;;;;40.20;15.57;;;;;;;1.53;80.65;102183.28;5113209;28;20182;-64
2023/03/03 09:18:17;;;;;;;33.17;14.83;;;;;;;1.53;80.70;102178.00;5114254;28;20189;-64
2023/03/03 09:20:49;;;;;;;35.30;14.83;;;;;;;1.57;80.26;102183.25;5117072;28;20219;-64
2023/03/03 09:23:27;;;;;;;40.60;15.17;;;;;;;1.56;79.82;102184.16;5117177;28;20193;-65
2023/03/03 09:25:54;;;;;;;36.60;14.43;;;;;;;1.59;80.42;102181.47;5117012;28;20221;-65
2023/03/03 09:28:31;;;;;;;37.70;14.83;;;;;;;1.53;80.70;102191.22;5117253;28;20276;-65
2023/03/03 09:31:04;;;;;;;34.23;14.60;;;;;;;1.55;79.87;102185.03;5116766;28;20573;-64
2023/03/03 09:33:43;;;;;;;36.77;13.93;;;;;;;1.45;79.96;102194.81;5116693;28;20215;-64
2023/03/03 09:36:35;;;;;;;35.57;15.10;;;;;;;1.35;81.07;102193.16;5116642;28;20702;-64
2023/03/03 09:39:15;;;;;;;34.57;15.13;;;;;;;1.31;80.67;102193.19;5116605;28;20181;-64
2023/03/03 09:42:08;;;;;;;42.07;15.30;;;;;;;1.32;80.90;102193.19;5116728;28;20201;-65
2023/03/03 09:45:00;;;;;;;38.17;16.40;;;;;;;1.41;80.17;102192.22;5116472;28;20186;-64
2023/03/03 09:47:52;;;;;;;32.37;14.43;;;;;;;1.37;80.82;102190.50;5116753;28;20558;-64
2023/03/03 09:50:33;;;;;;;35.83;14.83;;;;;;;1.50;79.77;102189.47;5116298;28;20183;-64
2023/03/03 09:53:34;;;;;;;38.73;15.80;;;;;;;1.53;80.13;102193.84;5116865;28;20283;-64
2023/03/03 09:56:00;;;;;;;34.83;14.77;;;;;;;1.48;79.46;102204.47;5116634;28;20184;-64
2023/03/03 09:58:49;;;;;;;31.23;14.33;;;;;;;1.42;80.05;102204.53;5116550;28;20195;-64
2023/03/03 10:01:44;;;;;;;36.13;15.33;;;;;;;1.41;80.13;102200.13;5116546;28;20212;-64
2023/03/03 10:04:40;;;;;;;35.93;15.03;;;;;;;1.36;79.91;102208.09;5116662;28;20180;-64
2023/03/03 10:07:20;;;;;;;39.60;14.57;;;;;;;1.36;80.73;102208.09;5116457;28;20264;-67
2023/03/03 10:10:14;;;;;;;32.30;14.97;;;;;;;1.48;80.73;102209.72;5116259;28;20185;-67
2023/03/03 10:13:07;;;;;;;37.07;16.03;;;;;;;1.62;79.35;102212.25;5116000;28;20216;-67
2023/03/03 10:16:12;;;;;;;33.00;14.80;;;;;;;1.74;79.37;102209.47;5116257;28;20177;-67
2023/03/03 10:18:44;;;;;;;30.90;15.00;;;;;;;1.76;79.03;102210.31;5115991;28;20202;-67
2023/03/03 10:21:23;;;;;;;32.50;14.83;;;;;;;1.85;78.11;102217.28;5116225;28;20245;-67
2023/03/03 10:24:08;;;;;;;45.30;16.23;;;;;;;1.94;78.77;102213.63;5116614;28;20173;-68
2023/03/03 10:26:34;;;;;;;37.70;15.13;;;;;;;1.94;79.24;102211.91;5116442;28;20173;-68
2023/03/03 10:29:17;;;;;;;39.17;16.00;;;;;;;2.07;78.89;102210.84;5115513;28;20180;-68
2023/03/03 10:32:11;;;;;;;37.03;16.27;;;;;;;2.19;78.22;102219.50;5116276;28;20330;-68
2023/03/03 10:35:00;;;;;;;32.80;15.23;;;;;;;2.17;78.04;102216.00;5117058;28;20177;-68
2023/03/03 10:38:10;;;;;;;36.27;16.90;;;;;;;2.31;77.78;102220.22;5115755;28;20180;-68
2023/03/03 10:40:53;;;;;;;29.70;13.97;;;;;;;2.24;77.54;102221.19;5115246;28;20201;-67
2023/03/03 10:43:52;;;;;;;37.27;15.03;;;;;;;2.23;77.25;102221.22;5115653;28;20184;-67
2023/03/03 10:46:45;;;;;;;33.37;15.13;;;;;;;1.92;77.82;102224.25;5115632;28;20184;-67
2023/03/03 10:49:38;;;;;;;37.33;15.20;;;;;;;1.98;77.68;102224.16;5115276;28;20708;-67
2023/03/03 10:52:19;;;;;;;36.13;14.80;;;;;;;2.10;77.89;102225.78;5115711;28;20217;-68
2023/03/03 10:55:11;;;;;;;34.00;14.30;;;;;;;2.18;77.72;102226.56;5116281;28;20208;-68
2023/03/03 10:58:00;;;;;;;33.97;13.83;;;;;;;2.24;77.94;102222.97;5115900;28;20670;-68
2023/03/03 11:00:32;;;;;;;31.40;13.47;;;;;;;2.33;76.48;102222.84;5115915;28;20170;-67
2023/03/03 11:03:31;;;;;;;26.77;12.80;;;;;;;2.35;75.99;102226.34;5115455;28;20170;-68
2023/03/03 11:06:00;;;;;;;36.97;12.73;;;;;;;2.32;76.39;102227.28;5114897;28;20191;-68
2023/03/03 11:08:36;;;;;;;25.70;12.67;;;;;;;2.35;76.58;102226.34;5114836;28;20184;-68
2023/03/03 11:11:24;;;;;;;35.83;14.43;;;;;;;2.39;75.78;102222.75;5115005;28;20295;-69
2023/03/03 11:14:07;;;;;;;31.07;13.73;;;;;;;2.50;75.83;102219.97;5114739;28;20224;-69
2023/03/03 11:17:06;;;;;;;30.57;14.03;;;;;;;2.64;75.34;102222.44;5114981;28;20543;-69
2023/03/03 11:19:52;;;;;;;30.10;14.40;;;;;;;2.74;75.51;102219.59;5115208;28;20248;-69
2023/03/03 11:22:32;;;;;;;29.57;13.90;;;;;;;2.66;75.00;102213.56;5114691;28;20203;-68
2023/03/03 11:25:15;;;;;;;28.07;14.50;;;;;;;2.73;74.75;102211.69;5114833;28;20197;-69
2023/03/03 11:28:01;;;;;;;29.23;14.20;;;;;;;2.62;75.36;102211.84;5114770;28;20205;-68
2023/03/03 11:30:38;;;;;;;28.00;13.33;;;;;;;2.68;75.45;102211.78;5114619;28;20187;-68
2023/03/03 11:33:11;;;;;;;24.70;13.80;;;;;;;2.66;75.05;102215.31;5114260;28;20193;-68
2023/03/03 11:35:49;;;;;;;26.40;13.60;;;;;;;2.74;75.10;102211.66;5114694;28;20256;-68
2023/03/03 11:38:32;;;;;;;25.37;12.57;;;;;;;2.91;74.36;102213.19;5114575;28;20185;-68
2023/03/03 11:41:03;;;;;;;27.70;12.77;;;;;;;3.04;74.30;102211.19;5114079;28;20284;-67